Time;durP1;ratioP1;P1;durP2;ratioP2;P2;SDS_P1;SDS_P2;PMS_P1;PMS_P2;Temp;Humidity;BMP_temperature;BMP_pressure;BME280_temperature;BME280_humidity;BME280_pressure;Samples;Min_cycle;Max_cycle;Signal;HPM_P1;HPM_P2
2023/05/22 00:01:18;;;;;;;12.03;8.20;;;;;;;-144.30;93.48;85424.25;5067870;28;20196;-58
2023/05/22 00:03:45;;;;;;;10.63;8.30;;;;;;;-144.30;93.38;85372.56;5070398;28;20659;-58
2023/05/22 00:06:13;;;;;;;11.23;7.87;;;;;;;-144.30;93.01;85402.41;5070386;28;20279;-58
2023/05/22 00:08:40;;;;;;;9.00;8.10;;;;;;;-144.30;93.78;85378.53;5070537;28;20223;-52
2023/05/22 00:11:07;;;;;;;10.23;8.13;;;;;;;-144.30;93.53;85376.56;5070594;28;20254;-52
2023/05/22 00:13:34;;;;;;;8.77;7.67;;;;;;;-144.30;93.20;85380.53;5067123;28;20192;-53
2023/05/22 00:16:02;;;;;;;10.63;7.90;;;;;;;-144.30;92.82;85380.53;5069543;28;20222;-53
2023/05/22 00:18:29;;;;;;;9.47;7.57;;;;;;;-144.30;92.63;85378.53;5070126;28;20191;-53
2023/05/22 00:20:56;;;;;;;8.70;8.00;;;;;;;-144.30;92.04;85376.56;5067764;28;20192;-52
2023/05/22 00:23:26;;;;;;;12.33;7.93;;;;;;;-144.30;91.89;85382.53;5069949;28;20643;-57
2023/05/22 00:25:53;;;;;;;10.50;8.23;;;;;;;-144.30;91.65;85352.69;5070346;28;20188;-59
2023/05/22 00:28:21;;;;;;;11.30;7.77;;;;;;;-144.30;92.00;85408.34;5070234;28;20191;-59
2023/05/22 00:30:48;;;;;;;11.13;7.40;;;;;;;-144.30;92.06;85404.38;5069584;28;20577;-58
2023/05/22 00:33:15;;;;;;;10.40;7.27;;;;;;;-144.30;91.93;85382.53;5067177;28;20200;-59
2023/05/22 00:35:41;;;;;;;9.43;7.30;;;;;;;-144.30;92.06;85384.50;5069502;28;20223;-52
2023/05/22 00:38:08;;;;;;;8.10;7.50;;;;;;;-144.30;92.07;85400.41;5069724;28;20288;-53
2023/05/22 00:40:37;;;;;;;8.07;6.77;;;;;;;-144.30;92.01;85380.53;5066981;28;20199;-52
2023/05/22 00:43:07;;;;;;;11.43;7.17;;;;;;;-144.30;91.96;85394.44;5069632;28;20697;-59
2023/05/22 00:45:34;;;;;;;8.83;7.10;;;;;;;-144.30;91.94;85400.41;5069276;28;20286;-59
2023/05/22 00:48:01;;;;;;;7.83;6.93;;;;;;;-144.30;92.29;85408.34;5069710;28;20679;-59
2023/05/22 00:50:28;;;;;;;7.80;7.10;;;;;;;-144.30;92.25;85406.38;5069674;28;20202;-59
2023/05/22 00:52:55;;;;;;;7.10;6.60;;;;;;;-144.30;91.89;85430.22;5066800;28;20202;-60
2023/05/22 00:55:22;;;;;;;9.10;6.60;;;;;;;-144.30;91.95;85402.41;5069505;28;20600;-58
2023/05/22 00:57:50;;;;;;;7.97;7.00;;;;;;;-144.30;92.00;85444.16;5069254;28;20199;-52
2023/05/22 01:00:19;;;;;;;13.60;7.33;;;;;;;-144.30;91.77;85414.31;5067333;28;20257;-52
2023/05/22 01:02:46;;;;;;;10.47;6.57;;;;;;;-144.30;92.23;85410.34;5069538;28;20234;-52
2023/05/22 01:05:16;;;;;;;6.90;6.40;;;;;;;-144.30;92.46;85414.31;5069494;28;20199;-53
2023/05/22 01:07:44;;;;;;;7.57;6.70;;;;;;;-144.30;92.49;85360.66;5069421;28;20199;-56
2023/05/22 01:10:11;;;;;;;7.10;6.50;;;;;;;-144.30;92.69;85416.31;5069165;28;20274;-58
2023/05/22 01:12:47;;;;;;;9.00;7.22;;;;;;;-144.30;92.71;85388.47;5066672;28;20196;-58
2023/05/22 01:15:24;;;;;;;7.50;6.73;;;;;;;-144.30;92.83;85432.22;5068644;28;20682;-58
2023/05/22 01:17:59;;;;;;;7.83;7.17;;;;;;;-144.30;92.87;85436.19;5069407;28;20200;-59
2023/05/22 01:20:32;;;;;;;10.83;7.27;;;;;;;-144.30;92.83;85418.31;5069265;28;20192;-59
2023/05/22 01:23:35;;;;;;;7.63;6.80;;;;;;;-144.30;92.80;85416.31;5066901;28;20679;-60
2023/05/22 01:26:32;;;;;;;8.23;7.33;;;;;;;-144.30;92.78;85408.34;5055952;28;20199;-58
2023/05/22 01:29:22;;;;;;;7.47;6.88;;;;;;;-144.30;92.43;85406.38;5056174;28;20192;-52
2023/05/22 01:31:52;;;;;;;10.47;6.37;;;;;;;-144.30;92.17;85400.41;5072010;28;20204;-58
2023/05/22 01:34:21;;;;;;;8.63;6.50;;;;;;;-144.30;92.24;85440.16;5070567;28;20200;-59
2023/05/22 01:36:50;;;;;;;7.10;6.50;;;;;;;-144.30;92.20;85434.22;5072724;28;20212;-52
2023/05/22 01:39:18;;;;;;;6.80;6.13;;;;;;;-144.30;92.24;85360.66;5070405;28;20192;-50
2023/05/22 01:41:45;;;;;;;9.13;6.77;;;;;;;-144.30;92.19;85414.31;5072603;28;20203;-51
2023/05/22 01:44:12;;;;;;;8.68;7.07;;;;;;;-144.30;92.79;85376.56;5072713;28;20188;-58
2023/05/22 01:46:39;;;;;;;10.40;6.72;;;;;;;-144.30;92.99;85436.19;5072639;28;20192;-59
2023/05/22 01:49:08;;;;;;;10.73;7.60;;;;;;;-144.30;93.35;85416.31;5072431;28;20279;-53
2023/05/22 01:51:47;;;;;;;10.70;7.30;;;;;;;-144.30;93.73;85414.31;5072393;28;20203;-58
2023/05/22 01:54:19;;;;;;;7.60;6.83;;;;;;;-144.30;92.98;85382.53;5072271;28;20573;-58
2023/05/22 01:56:50;;;;;;;11.27;6.80;;;;;;;-144.30;92.56;85428.25;5072433;28;20222;-59
2023/05/22 01:59:26;;;;;;;7.67;6.97;;;;;;;-144.30;92.16;85420.28;5070086;28;20668;-52
2023/05/22 02:01:55;;;;;;;8.13;6.43;;;;;;;-144.30;92.93;85452.09;5072362;28;20188;-59
2023/05/22 02:04:25;;;;;;;10.97;7.00;;;;;;;-144.30;93.51;85471.97;5072179;28;20200;-52
2023/05/22 02:06:53;;;;;;;7.13;6.50;;;;;;;-144.30;93.16;85460.03;5072046;28;20188;-52
2023/05/22 02:09:22;;;;;;;7.43;6.73;;;;;;;-144.30;93.02;85424.25;5072384;28;20192;-59
2023/05/22 02:11:49;;;;;;;7.67;6.83;;;;;;;-144.30;92.49;85348.72;5072346;28;20579;-59
2023/05/22 02:14:18;;;;;;;8.30;6.97;;;;;;;-144.30;91.94;85420.28;5069313;28;20219;-59
2023/05/22 02:16:46;;;;;;;8.20;6.60;;;;;;;-144.30;92.01;85428.25;5071980;28;20216;-59
2023/05/22 02:19:14;;;;;;;7.03;6.43;;;;;;;-144.30;92.04;85426.25;5071775;28;20241;-58
2023/05/22 02:21:42;;;;;;;8.27;6.87;;;;;;;-144.30;91.56;85432.22;5072258;28;20237;-58
2023/05/22 02:24:10;;;;;;;8.60;7.60;;;;;;;-144.30;91.26;85418.31;5071858;28;20196;-52
2023/05/22 02:26:38;;;;;;;8.07;6.77;;;;;;;-144.30;90.78;85410.34;5069368;28;20192;-51
2023/05/22 02:29:05;;;;;;;7.53;6.73;;;;;;;-144.30;91.40;85396.44;5072021;28;20664;-51
2023/05/22 02:31:32;;;;;;;6.93;6.43;;;;;;;-144.30;92.25;85440.16;5072357;28;20192;-58
2023/05/22 02:33:59;;;;;;;9.23;6.90;;;;;;;-144.30;92.82;85434.22;5071716;28;20191;-58
2023/05/22 02:36:26;;;;;;;9.07;6.83;;;;;;;-144.30;92.42;85462.03;5071559;28;20218;-51
2023/05/22 02:38:55;;;;;;;9.50;6.80;;;;;;;-144.30;91.45;85468.00;5070701;28;20199;-52
2023/05/22 02:41:22;;;;;;;11.17;7.20;;;;;;;-144.30;91.10;85382.53;5071676;28;20645;-53
2023/05/22 02:43:48;;;;;;;10.23;7.53;;;;;;;-144.30;91.36;85430.22;5071470;28;20196;-58
2023/05/22 02:46:15;;;;;;;8.40;7.37;;;;;;;-144.30;91.38;85440.16;5068875;28;20559;-58
2023/05/22 02:48:44;;;;;;;10.10;7.55;;;;;;;-144.30;91.96;85402.41;5071823;28;20587;-59
2023/05/22 02:51:11;;;;;;;11.60;7.47;;;;;;;-144.30;92.36;85434.22;5071330;28;20242;-59
2023/05/22 02:53:39;;;;;;;10.60;7.17;;;;;;;-144.30;93.19;85438.19;5071143;28;20196;-59
2023/05/22 02:56:09;;;;;;;8.90;7.07;;;;;;;-144.30;93.10;85440.16;5071250;28;20304;-54
2023/05/22 02:58:36;;;;;;;7.77;6.90;;;;;;;-144.30;92.69;85400.41;5068714;28;20280;-52
2023/05/22 03:01:05;;;;;;;9.37;6.83;;;;;;;-144.30;92.33;85468.00;5071248;28;20572;-59
2023/05/22 03:03:32;;;;;;;7.63;6.97;;;;;;;-144.30;91.54;85450.09;5071378;28;20730;-58
2023/05/22 03:06:00;;;;;;;9.63;7.03;;;;;;;-144.30;91.17;85468.00;5071256;28;20641;-59
2023/05/22 03:08:27;;;;;;;8.73;7.10;;;;;;;-144.30;91.80;85440.16;5071178;28;20226;-59
2023/05/22 03:10:54;;;;;;;7.60;6.90;;;;;;;-144.30;92.06;85452.09;5070972;28;20196;-58
2023/05/22 03:13:23;;;;;;;7.00;6.30;;;;;;;-144.30;91.84;85456.06;5070901;28;20196;-58
2023/05/22 03:15:50;;;;;;;12.10;6.97;;;;;;;-144.30;91.80;85452.09;5070831;28;20274;-59
2023/05/22 03:18:17;;;;;;;7.37;6.77;;;;;;;-144.30;91.75;85452.09;5068158;28;20257;-53
2023/05/22 03:20:44;;;;;;;13.30;7.10;;;;;;;-144.30;91.38;85408.34;5070882;28;20206;-52
2023/05/22 03:23:12;;;;;;;11.77;6.93;;;;;;;-144.30;91.74;85436.19;5070608;28;20254;-59
2023/05/22 03:25:39;;;;;;;13.97;7.40;;;;;;;-144.30;91.56;85456.06;5070933;28;20667;-59
2023/05/22 03:28:06;;;;;;;10.20;7.30;;;;;;;-144.30;91.63;85436.19;5070755;28;20188;-59
2023/05/22 03:30:34;;;;;;;10.63;7.00;;;;;;;-144.30;91.22;85412.34;5070506;28;20272;-59
2023/05/22 03:33:01;;;;;;;7.60;6.87;;;;;;;-144.30;91.30;85418.31;5070614;28;20203;-59
2023/05/22 03:35:28;;;;;;;12.40;6.67;;;;;;;-144.30;91.02;85412.34;5070738;28;20206;-58
2023/05/22 03:37:54;;;;;;;9.63;6.87;;;;;;;-144.30;91.42;85394.44;5070406;28;20597;-58
2023/05/22 03:40:21;;;;;;;13.63;6.77;;;;;;;-144.30;90.22;85404.38;5070440;28;20590;-52
2023/05/22 03:42:48;;;;;;;12.82;6.75;;;;;;;-144.30;89.76;85396.44;5069544;28;20192;-58
2023/05/22 03:45:16;;;;;;;10.00;6.60;;;;;;;-144.30;90.03;85352.69;5069254;28;20203;-58
2023/05/22 03:47:44;;;;;;;12.90;6.57;;;;;;;-144.30;90.07;85416.31;5069378;28;20184;-58
2023/05/22 03:50:11;;;;;;;7.33;6.60;;;;;;;-144.30;90.61;85382.53;5068450;28;20295;-58
2023/05/22 03:52:38;;;;;;;8.98;6.68;;;;;;;-144.30;90.22;85410.34;5067221;28;20261;-58
2023/05/22 03:55:06;;;;;;;6.87;6.23;;;;;;;-144.30;89.47;85356.69;5069474;28;20208;-58
2023/05/22 03:57:33;;;;;;;9.48;6.38;;;;;;;-144.30;87.84;85301.00;5069679;28;20215;-57
2023/05/22 04:00:08;;;;;;;8.15;6.72;;;;;;;-144.30;85.47;85273.19;5069662;28;20200;-58
2023/05/22 04:02:37;;;;;;;17.08;7.55;;;;;;;-144.30;83.39;85209.56;5070247;28;20206;-58
2023/05/22 04:05:07;;;;;;;10.07;6.65;;;;;;;-144.30;79.36;85032.66;5070493;28;20637;-58
2023/05/22 04:07:34;;;;;;;8.57;6.80;;;;;;;-144.30;74.13;84907.44;5070248;28;20727;-58
2023/05/22 04:10:01;;;;;;;12.15;7.32;;;;;;;-144.30;72.63;84925.31;5070232;28;20657;-58
2023/05/22 04:12:27;;;;;;;10.80;7.63;;;;;;;-144.30;71.55;84921.34;5070387;28;20200;-60
2023/05/22 04:14:54;;;;;;;11.82;6.93;;;;;;;-144.30;72.50;84994.91;5070120;28;20235;-59
2023/05/22 04:17:21;;;;;;;11.93;6.93;;;;;;;-144.30;72.74;84947.19;5070144;28;20216;-59
2023/05/22 04:19:48;;;;;;;10.27;7.95;;;;;;;-144.30;72.44;84982.97;5070251;28;20192;-58
2023/05/22 04:22:17;;;;;;;11.82;7.00;;;;;;;-144.30;72.84;85016.75;5069790;28;20195;-59
2023/05/22 04:24:47;;;;;;;9.15;7.25;;;;;;;-144.30;74.60;84975.00;5069146;28;20249;-58
2023/05/22 04:27:14;;;;;;;10.43;9.30;;;;;;;-144.30;75.88;85098.25;5068510;28;20283;-59
2023/05/22 04:29:43;;;;;;;17.58;9.82;;;;;;;-144.30;76.87;85122.09;5069419;28;20198;-58
2023/05/22 04:32:10;;;;;;;10.80;7.80;;;;;;;-144.30;77.74;85143.97;5070097;28;20196;-59
2023/05/22 04:34:37;;;;;;;16.00;7.88;;;;;;;-144.30;78.25;85145.97;5069908;28;20200;-53
2023/05/22 04:37:05;;;;;;;15.32;7.32;;;;;;;-144.30;78.57;85199.63;5068404;28;20246;-52
2023/05/22 04:39:33;;;;;;;8.95;7.95;;;;;;;-144.30;79.76;85217.53;5069791;28;20206;-53
2023/05/22 04:42:04;;;;;;;12.18;7.70;;;;;;;-144.30;80.31;85237.41;5067280;28;20198;-52
2023/05/22 04:44:33;;;;;;;8.82;7.95;;;;;;;-144.30;80.55;85207.59;5069543;28;20616;-52
2023/05/22 04:47:00;;;;;;;12.48;7.70;;;;;;;-144.30;80.55;85235.41;5067127;28;20660;-52
2023/05/22 04:49:27;;;;;;;12.68;8.02;;;;;;;-144.30;81.26;85249.34;5069166;28;20206;-51
2023/05/22 04:51:56;;;;;;;13.07;7.30;;;;;;;-144.30;80.87;85173.78;5069518;28;20218;-52
2023/05/22 04:54:23;;;;;;;18.33;7.72;;;;;;;-144.30;76.10;85004.84;5069277;28;20249;-51
2023/05/22 04:56:51;;;;;;;9.80;6.88;;;;;;;-144.30;71.67;84873.66;5069400;28;20227;-53
2023/05/22 04:59:22;;;;;;;13.38;6.82;;;;;;;-144.30;68.47;84794.13;5066688;28;20672;-53
2023/05/22 05:01:49;;;;;;;9.00;7.30;;;;;;;-144.30;67.53;84839.84;5069802;28;20203;-53
2023/05/22 05:04:16;;;;;;;12.90;7.63;;;;;;;-144.30;68.95;84841.84;5073351;28;20672;-53
2023/05/22 05:06:43;;;;;;;11.93;7.55;;;;;;;-144.30;71.42;84949.19;5072350;28;20191;-53
2023/05/22 05:09:10;;;;;;;14.73;7.55;;;;;;;-144.30;73.55;85032.66;5072021;28;20249;-52
2023/05/22 05:11:37;;;;;;;8.07;7.43;;;;;;;-144.30;75.47;85118.13;5071967;28;20218;-53
2023/05/22 05:14:06;;;;;;;12.88;7.90;;;;;;;-144.30;77.75;85108.19;5071572;28;20226;-53
2023/05/22 05:16:32;;;;;;;15.38;8.70;;;;;;;-144.30;78.35;85110.19;5071565;28;20200;-52
2023/05/22 05:19:00;;;;;;;9.10;8.23;;;;;;;-144.30;78.40;85177.75;5071751;28;20199;-52
2023/05/22 05:21:27;;;;;;;12.15;8.15;;;;;;;-144.30;78.59;85165.84;5070170;28;20188;-52
2023/05/22 05:23:54;;;;;;;13.02;8.75;;;;;;;-144.30;78.65;85143.97;5071640;28;20196;-58
2023/05/22 05:26:22;;;;;;;12.30;8.80;;;;;;;-144.30;79.05;85153.91;5071716;28;20192;-58
2023/05/22 05:28:50;;;;;;;9.68;8.35;;;;;;;-144.30;77.71;85112.16;5070188;28;20200;-58
2023/05/22 05:31:19;;;;;;;10.35;8.55;;;;;;;-144.30;76.56;85068.44;5071516;28;20305;-58
2023/05/22 05:33:46;;;;;;;15.18;8.73;;;;;;;-144.30;76.29;85080.38;5071458;28;20289;-59
2023/05/22 05:36:13;;;;;;;16.42;8.25;;;;;;;-144.30;76.68;85122.09;5071521;28;20203;-58
2023/05/22 05:38:40;;;;;;;12.40;9.18;;;;;;;-144.30;76.97;85096.25;5071647;28;20610;-58
2023/05/22 05:41:07;;;;;;;17.35;9.88;;;;;;;-144.30;77.83;85147.94;5070068;28;20257;-59
2023/05/22 05:43:34;;;;;;;12.68;10.52;;;;;;;-144.30;77.89;85159.88;5071309;28;20188;-61
2023/05/22 05:46:02;;;;;;;21.33;15.93;;;;;;;-144.30;78.33;85161.88;5071796;28;20219;-59
2023/05/22 05:48:30;;;;;;;16.25;10.80;;;;;;;-144.30;79.35;85217.53;5071569;28;20619;-53
2023/05/22 05:50:57;;;;;;;12.23;9.70;;;;;;;-144.30;79.83;85201.63;5071172;28;20196;-53
2023/05/22 05:53:24;;;;;;;11.25;9.15;;;;;;;-144.30;80.35;85177.75;5071041;28;20195;-52
2023/05/22 05:55:51;;;;;;;18.55;14.95;;;;;;;-144.30;79.10;85155.91;5071066;28;20226;-52
2023/05/22 05:58:18;;;;;;;10.13;9.23;;;;;;;-144.30;78.54;85112.16;5070080;28;20224;-52
2023/05/22 06:00:45;;;;;;;15.25;9.30;;;;;;;-144.30;76.70;85030.66;5071375;28;20202;-53
2023/05/22 06:03:12;;;;;;;15.43;8.93;;;;;;;-144.30;73.86;84792.16;5071094;28;20199;-53
2023/05/22 06:05:40;;;;;;;16.90;8.77;;;;;;;-144.30;67.05;84700.72;5070121;28;20200;-59
2023/05/22 06:08:07;;;;;;;9.57;8.45;;;;;;;-144.30;64.11;84577.50;5069628;28;20295;-59
2023/05/22 06:10:34;;;;;;;17.92;9.23;;;;;;;-144.30;63.48;84557.63;5070741;28;20196;-59
2023/05/22 06:13:01;;;;;;;14.20;8.77;;;;;;;-144.30;62.92;84394.66;5069846;28;20200;-58
2023/05/22 06:15:29;;;;;;;9.73;8.75;;;;;;;-144.30;60.41;84362.84;5070627;28;20215;-58
2023/05/22 06:17:56;;;;;;;10.35;7.53;;;;;;;-144.30;57.90;84307.22;5070778;28;20627;-58
2023/05/22 06:20:23;;;;;;;8.82;7.93;;;;;;;-144.30;55.88;84114.44;5070689;28;20239;-58
2023/05/22 06:22:52;;;;;;;12.90;8.45;;;;;;;-144.30;52.80;83957.47;5070548;28;20219;-53
2023/05/22 06:25:19;;;;;;;13.57;8.45;;;;;;;-144.30;49.66;83905.81;5069320;28;20195;-53
2023/05/22 06:27:46;;;;;;;15.38;9.27;;;;;;;-144.30;49.66;83822.34;5070716;28;20192;-53
2023/05/22 06:30:14;;;;;;;11.00;8.07;;;;;;;-144.30;48.34;83796.50;5071814;28;20188;-52
2023/05/22 06:32:41;;;;;;;10.27;8.60;;;;;;;-144.30;47.28;83721.00;5069428;28;20192;-53
2023/05/22 06:35:08;;;;;;;9.02;8.18;;;;;;;-144.30;46.02;83599.81;5071582;28;20198;-52
2023/05/22 06:37:37;;;;;;;9.60;7.25;;;;;;;-144.30;42.92;83397.16;5066096;28;20224;-53
2023/05/22 06:40:07;;;;;;;8.02;7.40;;;;;;;-144.30;42.27;83510.41;5071301;28;20389;-59
2023/05/22 06:42:34;;;;;;;7.18;6.40;;;;;;;-144.30;40.79;83299.78;5070301;28;20647;-59
2023/05/22 06:45:00;;;;;;;9.40;6.57;;;;;;;-144.30;39.85;83228.28;5071122;28;20215;-59
2023/05/22 06:47:28;;;;;;;9.68;7.25;;;;;;;-144.30;40.60;83289.84;5070424;28;20270;-59
2023/05/22 06:49:54;;;;;;;7.10;6.20;;;;;;;-144.30;39.90;83333.56;5071360;28;20223;-59
2023/05/22 06:52:21;;;;;;;10.60;5.60;;;;;;;-144.30;39.36;83430.91;5070114;28;20238;-59
2023/05/22 06:54:48;;;;;;;13.98;5.60;;;;;;;-144.30;39.46;83190.53;5067682;28;20211;-59
2023/05/22 06:57:17;;;;;;;9.10;6.63;;;;;;;-144.30;39.40;83260.06;5070781;28;20310;-59
2023/05/22 06:59:44;;;;;;;6.85;5.18;;;;;;;-144.30;38.80;83216.34;5071457;28;20211;-59
2023/05/22 07:02:11;;;;;;;7.93;5.80;;;;;;;-144.30;37.11;83150.78;5071280;28;20195;-59
2023/05/22 07:04:37;;;;;;;9.27;5.72;;;;;;;-144.30;37.24;83075.31;5071365;28;20210;-58
2023/05/22 07:07:05;;;;;;;6.32;5.78;;;;;;;-144.30;36.92;83122.97;5071696;28;20196;-58
2023/05/22 07:09:33;;;;;;;8.05;6.18;;;;;;;-144.30;38.03;83126.94;5071535;28;20192;-58
2023/05/22 07:12:00;;;;;;;14.60;6.60;;;;;;;-144.30;37.46;83111.06;5071415;28;20199;-57
2023/05/22 07:14:28;;;;;;;5.85;5.45;;;;;;;-144.30;36.47;83019.69;5071282;28;20318;-58
2023/05/22 07:16:56;;;;;;;9.23;6.03;;;;;;;-144.30;36.14;83194.50;5071171;28;20196;-58
2023/05/22 07:19:22;;;;;;;8.18;5.78;;;;;;;-144.30;36.53;83164.69;5071165;28;20196;-59
2023/05/22 07:21:49;;;;;;;7.07;6.38;;;;;;;-144.30;36.60;83210.38;5071361;28;20195;-59
2023/05/22 07:24:16;;;;;;;10.98;5.80;;;;;;;-144.30;37.16;83335.56;5071127;28;20199;-52
2023/05/22 07:26:45;;;;;;;6.30;5.00;;;;;;;-144.30;36.97;83401.13;5060990;28;20223;-52
2023/05/22 07:29:12;;;;;;;6.60;4.82;;;;;;;-144.30;36.55;83373.31;5051004;28;20661;-53
2023/05/22 07:31:41;;;;;;;9.00;5.40;;;;;;;-144.30;36.50;83417.00;5057425;28;20271;-53
2023/05/22 07:34:07;;;;;;;9.10;5.55;;;;;;;-144.30;37.01;83468.66;5070186;28;20258;-52
2023/05/22 07:36:34;;;;;;;10.75;5.63;;;;;;;-144.30;37.29;83464.69;5069354;28;20211;-58
2023/05/22 07:39:01;;;;;;;9.80;5.53;;;;;;;-144.30;37.29;83409.06;5069491;28;20220;-59
2023/05/22 07:41:28;;;;;;;6.63;5.90;;;;;;;-144.30;36.61;83333.56;5051681;28;20215;-59
2023/05/22 07:43:55;;;;;;;8.13;6.03;;;;;;;-144.30;36.70;83363.38;5051210;28;20192;-59
2023/05/22 07:46:22;;;;;;;6.40;5.80;;;;;;;-144.30;36.92;83452.78;5050547;28;20227;-59
2023/05/22 07:48:50;;;;;;;6.35;5.72;;;;;;;-144.30;38.24;83611.72;5050576;28;20219;-58
2023/05/22 07:51:17;;;;;;;6.45;6.00;;;;;;;-144.30;38.96;83595.81;5049649;28;20214;-58
2023/05/22 07:53:44;;;;;;;6.75;6.20;;;;;;;-144.30;37.91;83504.44;5049228;28;20207;-59
2023/05/22 07:56:12;;;;;;;7.25;5.78;;;;;;;-144.30;37.67;83572.00;5049777;28;20199;-59
2023/05/22 07:58:39;;;;;;;11.63;5.55;;;;;;;-144.30;37.84;83562.06;5050274;28;20310;-59
2023/05/22 08:01:07;;;;;;;11.25;6.35;;;;;;;-144.30;38.46;83615.69;5050290;28;20593;-52
2023/05/22 08:03:34;;;;;;;7.85;5.80;;;;;;;-144.30;38.66;83621.66;5050540;28;20201;-52
2023/05/22 08:06:03;;;;;;;5.82;5.32;;;;;;;-144.30;36.68;83428.94;5050304;28;20202;-58
2023/05/22 08:08:30;;;;;;;5.30;4.80;;;;;;;-144.30;36.60;83607.75;5050039;28;20193;-58
2023/05/22 08:10:57;;;;;;;5.63;5.13;;;;;;;-144.30;37.23;83595.81;5050326;28;20716;-58
2023/05/22 08:13:24;;;;;;;10.88;5.55;;;;;;;-144.30;37.23;83591.84;5049850;28;20739;-57
2023/05/22 08:15:51;;;;;;;6.70;5.32;;;;;;;-144.30;37.54;83518.34;5050454;28;20665;-59
2023/05/22 08:18:18;;;;;;;5.65;5.15;;;;;;;-144.30;36.59;83504.44;5050050;28;20224;-59
2023/05/22 08:20:46;;;;;;;5.65;5.15;;;;;;;-144.30;36.61;83369.34;5050138;28;20573;-58
2023/05/22 08:23:14;;;;;;;5.30;4.90;;;;;;;-144.30;35.24;83337.53;5050124;28;20232;-60
2023/05/22 08:25:41;;;;;;;7.82;4.63;;;;;;;-144.30;34.98;83311.72;5050586;28;20605;-59
2023/05/22 08:28:08;;;;;;;6.03;4.25;;;;;;;-144.30;34.91;83287.88;5049943;28;20255;-59
2023/05/22 08:30:36;;;;;;;7.55;4.50;;;;;;;-144.30;35.19;83323.63;5050239;28;20587;-58
2023/05/22 08:33:02;;;;;;;6.20;4.70;;;;;;;-144.30;34.69;83242.19;5050227;28;20589;-59
2023/05/22 08:35:29;;;;;;;5.70;4.47;;;;;;;-144.30;33.74;83132.91;5049387;28;20196;-58
2023/05/22 08:37:56;;;;;;;6.05;4.38;;;;;;;-144.30;33.99;83140.84;5049942;28;20216;-59
2023/05/22 08:40:34;;;;;;;6.63;4.53;;;;;;;-144.30;34.32;83113.03;5049996;28;20203;-53
2023/05/22 08:43:01;;;;;;;7.50;4.50;;;;;;;-144.30;33.54;83232.25;5050013;28;20213;-53
2023/05/22 08:45:32;;;;;;;6.25;3.85;;;;;;;-144.30;34.42;83385.22;5049758;28;20669;-59
2023/05/22 08:48:03;;;;;;;4.55;4.15;;;;;;;-144.30;35.34;83373.31;5049945;28;20274;-53
2023/05/22 08:50:30;;;;;;;7.85;4.32;;;;;;;-144.30;35.27;83415.03;5049735;28;20258;-53
2023/05/22 08:53:02;;;;;;;8.82;4.55;;;;;;;-144.30;35.32;83393.16;5049764;28;20287;-53
2023/05/22 08:55:30;;;;;;;8.70;4.75;;;;;;;-144.30;35.73;83373.31;5049779;28;20201;-53
2023/05/22 08:57:58;;;;;;;6.82;4.50;;;;;;;-144.30;36.27;83444.81;5049881;28;20224;-53
2023/05/22 09:00:25;;;;;;;5.18;4.82;;;;;;;-144.30;35.73;83456.75;5049863;28;20716;-53
2023/05/22 09:02:54;;;;;;;7.70;4.25;;;;;;;-144.30;35.86;83510.41;5049848;28;20333;-53
2023/05/22 09:05:25;;;;;;;9.82;5.28;;;;;;;-144.30;36.80;83625.63;5049709;28;20563;-53
2023/05/22 09:07:52;;;;;;;11.05;4.40;;;;;;;-144.30;37.43;83679.28;5049575;28;20694;-52
2023/05/22 09:10:19;;;;;;;7.68;4.88;;;;;;;-144.30;38.18;83572.00;5049771;28;20609;-51
2023/05/22 09:13:06;;;;;;;8.85;5.43;;;;;;;-144.30;38.03;83510.41;5049685;28;20215;-52
2023/05/22 09:15:34;;;;;;;5.32;4.60;;;;;;;-144.30;37.20;83570.00;5049348;28;20631;-52
2023/05/22 09:18:02;;;;;;;9.65;4.70;;;;;;;-144.30;36.79;83450.78;5049341;28;20216;-53
2023/05/22 09:20:29;;;;;;;5.97;4.93;;;;;;;-144.30;36.97;83456.75;5049272;28;20192;-52
2023/05/22 09:22:56;;;;;;;8.25;4.68;;;;;;;-144.30;37.01;83575.97;5049933;28;20356;-53
2023/05/22 09:25:25;;;;;;;7.63;4.97;;;;;;;-144.30;38.18;83615.69;5049669;28;20207;-53
2023/05/22 09:27:53;;;;;;;6.28;4.43;;;;;;;-144.30;37.71;83635.56;5049496;28;20687;-52
2023/05/22 09:30:21;;;;;;;4.40;4.10;;;;;;;-144.30;38.08;83703.13;5049215;28;20197;-52
2023/05/22 09:32:49;;;;;;;7.57;4.90;;;;;;;-144.30;38.39;83728.97;5049194;28;20211;-58
2023/05/22 09:35:16;;;;;;;6.22;5.00;;;;;;;-144.30;38.08;83723.00;5049782;28;20652;-58
2023/05/22 09:37:43;;;;;;;5.28;4.63;;;;;;;-144.30;38.58;83728.97;5049424;28;20255;-58
2023/05/22 09:40:12;;;;;;;7.80;4.45;;;;;;;-144.30;37.72;84042.91;5049350;28;20286;-56
2023/05/22 09:42:43;;;;;;;19.50;5.25;;;;;;;-144.30;37.82;83603.78;5048436;28;20221;-58
2023/05/22 09:45:10;;;;;;;8.05;4.82;;;;;;;-144.30;37.11;83564.03;5048901;28;20228;-59
2023/05/22 09:47:39;;;;;;;5.20;4.72;;;;;;;-144.30;37.29;83623.66;5051019;28;20224;-59
2023/05/22 09:50:09;;;;;;;4.93;4.53;;;;;;;-144.30;37.06;83677.28;5071923;28;20261;-59
2023/05/22 09:52:37;;;;;;;8.73;4.65;;;;;;;-144.30;37.37;83770.69;5073171;28;20196;-59
2023/05/22 09:55:05;;;;;;;8.18;4.30;;;;;;;-144.30;38.40;83822.34;5069988;28;20192;-59
2023/05/22 09:57:38;;;;;;;6.65;4.35;;;;;;;-144.30;38.37;83802.47;5071869;28;20283;-59
2023/05/22 10:00:11;;;;;;;9.02;4.43;;;;;;;-144.30;38.85;83794.53;5069538;28;20212;-61
2023/05/22 10:02:44;;;;;;;8.88;4.65;;;;;;;-144.30;39.07;83784.59;5072632;28;20890;-60
2023/05/22 10:05:14;;;;;;;9.32;4.75;;;;;;;-144.30;39.12;83808.44;5070235;28;20215;-61
2023/05/22 10:07:47;;;;;;;5.25;4.57;;;;;;;-144.30;38.94;83758.75;5071730;28;20188;-59
2023/05/22 10:10:15;;;;;;;7.97;4.18;;;;;;;-144.30;38.92;83806.44;5070482;28;20203;-59
2023/05/22 10:12:48;;;;;;;10.00;4.20;;;;;;;-144.30;39.05;83852.16;5071506;28;20195;-59
2023/05/22 10:15:17;;;;;;;7.72;3.90;;;;;;;-144.30;38.54;83850.16;5070444;28;20723;-60
2023/05/22 10:17:45;;;;;;;5.00;4.53;;;;;;;-144.30;39.24;83838.25;5066384;28;20212;-59
2023/05/22 10:20:13;;;;;;;5.07;4.68;;;;;;;-144.30;39.77;83836.25;5071581;28;20654;-58
2023/05/22 10:22:41;;;;;;;6.93;4.25;;;;;;;-144.30;39.27;83820.34;5071498;28;20215;-58
2023/05/22 10:25:09;;;;;;;10.93;4.50;;;;;;;-144.30;38.72;83788.56;5071604;28;20234;-58
2023/05/22 10:27:37;;;;;;;6.53;4.20;;;;;;;-144.30;38.04;83864.06;5070868;28;20228;-52
2023/05/22 10:30:16;;;;;;;7.20;4.00;;;;;;;-144.30;38.41;83903.81;5071840;28;20220;-52
2023/05/22 10:32:50;;;;;;;4.40;4.00;;;;;;;-144.30;38.08;83931.63;5071326;28;20215;-54
2023/05/22 10:35:21;;;;;;;4.28;3.88;;;;;;;-144.30;38.03;84009.13;5071303;28;20211;-51
2023/05/22 10:37:51;;;;;;;5.72;4.25;;;;;;;-144.30;37.94;83961.44;5068207;28;20969;-52
2023/05/22 10:40:27;;;;;;;4.40;4.03;;;;;;;-144.30;38.41;83931.63;5069546;28;20609;-58
2023/05/22 10:42:59;;;;;;;4.78;4.15;;;;;;;-144.30;38.20;83921.69;5068163;28;20724;-59
2023/05/22 10:45:28;;;;;;;5.72;4.07;;;;;;;-144.30;38.75;83993.22;5069057;28;20200;-59
2023/05/22 10:48:11;;;;;;;4.43;4.03;;;;;;;-144.30;38.71;83905.81;5068758;28;20203;-59
2023/05/22 10:50:38;;;;;;;10.35;4.18;;;;;;;-144.30;38.37;83907.78;5069249;28;20196;-59
2023/05/22 10:53:23;;;;;;;4.43;4.03;;;;;;;-144.30;37.62;83877.97;5069015;28;20224;-59
2023/05/22 10:55:51;;;;;;;5.40;4.22;;;;;;;-144.30;36.80;83877.97;5069832;28;20192;-59
2023/05/22 10:58:25;;;;;;;9.73;5.35;;;;;;;-144.30;37.62;83822.34;5068939;28;20234;-59
2023/05/22 11:01:08;;;;;;;5.20;4.38;;;;;;;-144.30;36.99;83818.38;5069707;28;20245;-58
2023/05/22 11:03:55;;;;;;;7.03;4.25;;;;;;;-144.30;37.23;83830.28;5068622;28;20207;-59
2023/05/22 11:06:34;;;;;;;8.65;4.75;;;;;;;-144.30;36.70;83814.41;5069666;28;20192;-58
2023/05/22 11:09:17;;;;;;;7.22;5.10;;;;;;;-144.30;36.79;83826.31;5069239;28;20187;-59
2023/05/22 11:11:44;;;;;;;4.72;4.32;;;;;;;-144.30;36.41;83842.22;5068523;28;20225;-58
2023/05/22 11:14:12;;;;;;;4.13;3.65;;;;;;;-144.30;36.19;83798.50;5069463;28;20314;-58
2023/05/22 11:16:40;;;;;;;4.30;3.38;;;;;;;-144.30;35.29;83780.63;5069527;28;20203;-58
2023/05/22 11:19:09;;;;;;;7.18;3.75;;;;;;;-144.30;35.15;83717.03;5069463;28;20700;-60
2023/05/22 11:21:42;;;;;;;5.65;4.20;;;;;;;-144.30;34.51;83752.78;5068329;28;20196;-60